sensor_id;sensor_type;location;lat;lon;timestamp;P1;durP1;ratioP1;P2;durP2;ratioP2
16254;SDS011;8235;52.198;9.904;2022-08-16T00:01:11;8.10;;;7.30;;
16254;SDS011;8235;52.198;9.904;2022-08-16T00:03:37;10.52;;;7.75;;
16254;SDS011;8235;52.198;9.904;2022-08-16T00:06:04;9.18;;;8.25;;
16254;SDS011;8235;52.198;9.904;2022-08-16T00:08:31;14.27;;;7.85;;
16254;SDS011;8235;52.198;9.904;2022-08-16T00:10:57;8.98;;;7.85;;
16254;SDS011;8235;52.198;9.904;2022-08-16T00:13:24;8.85;;;7.55;;
16254;SDS011;8235;52.198;9.904;2022-08-16T00:15:51;8.82;;;7.93;;
16254;SDS011;8235;52.198;9.904;2022-08-16T00:18:19;9.80;;;8.18;;
16254;SDS011;8235;52.198;9.904;2022-08-16T00:20:46;9.07;;;8.18;;
16254;SDS011;8235;52.198;9.904;2022-08-16T00:23:13;8.43;;;7.72;;
16254;SDS011;8235;52.198;9.904;2022-08-16T00:25:40;12.20;;;8.73;;
16254;SDS011;8235;52.198;9.904;2022-08-16T00:28:07;8.95;;;8.15;;
16254;SDS011;8235;52.198;9.904;2022-08-16T00:30:34;11.35;;;8.80;;
16254;SDS011;8235;52.198;9.904;2022-08-16T00:33:00;9.13;;;7.80;;
16254;SDS011;8235;52.198;9.904;2022-08-16T00:35:30;10.38;;;8.25;;
16254;SDS011;8235;52.198;9.904;2022-08-16T00:37:59;8.98;;;8.07;;
16254;SDS011;8235;52.198;9.904;2022-08-16T00:40:34;9.20;;;8.30;;
16254;SDS011;8235;52.198;9.904;2022-08-16T00:43:03;8.73;;;7.93;;
16254;SDS011;8235;52.198;9.904;2022-08-16T00:45:34;10.85;;;7.75;;
16254;SDS011;8235;52.198;9.904;2022-08-16T00:48:07;9.02;;;8.23;;
16254;SDS011;8235;52.198;9.904;2022-08-16T00:50:38;9.93;;;8.10;;
16254;SDS011;8235;52.198;9.904;2022-08-16T00:53:06;9.20;;;8.30;;
16254;SDS011;8235;52.198;9.904;2022-08-16T00:55:36;9.20;;;7.63;;
16254;SDS011;8235;52.198;9.904;2022-08-16T00:58:05;8.43;;;7.75;;
16254;SDS011;8235;52.198;9.904;2022-08-16T01:00:34;9.30;;;8.50;;
16254;SDS011;8235;52.198;9.904;2022-08-16T01:03:03;9.20;;;7.90;;
16254;SDS011;8235;52.198;9.904;2022-08-16T01:05:33;9.02;;;7.93;;
16254;SDS011;8235;52.198;9.904;2022-08-16T01:08:02;9.70;;;8.57;;
16254;SDS011;8235;52.198;9.904;2022-08-16T01:10:31;11.18;;;9.00;;
16254;SDS011;8235;52.198;9.904;2022-08-16T01:12:59;9.73;;;8.70;;
16254;SDS011;8235;52.198;9.904;2022-08-16T01:15:30;10.00;;;9.10;;
16254;SDS011;8235;52.198;9.904;2022-08-16T01:17:57;9.77;;;8.55;;
16254;SDS011;8235;52.198;9.904;2022-08-16T01:20:25;14.68;;;9.15;;
16254;SDS011;8235;52.198;9.904;2022-08-16T01:22:58;10.68;;;8.88;;
16254;SDS011;8235;52.198;9.904;2022-08-16T01:25:31;9.68;;;8.18;;
16254;SDS011;8235;52.198;9.904;2022-08-16T01:28:01;8.70;;;7.82;;
16254;SDS011;8235;52.198;9.904;2022-08-16T01:30:31;11.45;;;8.68;;
16254;SDS011;8235;52.198;9.904;2022-08-16T01:33:00;12.40;;;9.65;;
16254;SDS011;8235;52.198;9.904;2022-08-16T01:35:33;10.53;;;8.67;;
16254;SDS011;8235;52.198;9.904;2022-08-16T01:38:13;11.85;;;8.40;;
16254;SDS011;8235;52.198;9.904;2022-08-16T01:40:43;9.52;;;7.78;;
16254;SDS011;8235;52.198;9.904;2022-08-16T01:43:10;10.93;;;8.65;;
16254;SDS011;8235;52.198;9.904;2022-08-16T01:45:37;12.25;;;8.07;;
16254;SDS011;8235;52.198;9.904;2022-08-16T01:48:04;11.60;;;9.07;;
16254;SDS011;8235;52.198;9.904;2022-08-16T01:50:30;9.85;;;8.75;;
16254;SDS011;8235;52.198;9.904;2022-08-16T01:52:58;9.40;;;8.27;;
16254;SDS011;8235;52.198;9.904;2022-08-16T01:55:24;10.05;;;8.55;;
16254;SDS011;8235;52.198;9.904;2022-08-16T01:57:52;9.88;;;7.88;;
16254;SDS011;8235;52.198;9.904;2022-08-16T02:00:19;8.80;;;7.88;;
16254;SDS011;8235;52.198;9.904;2022-08-16T02:02:45;10.45;;;8.60;;
16254;SDS011;8235;52.198;9.904;2022-08-16T02:05:12;9.55;;;8.10;;
16254;SDS011;8235;52.198;9.904;2022-08-16T02:07:39;10.02;;;8.20;;
16254;SDS011;8235;52.198;9.904;2022-08-16T02:10:08;9.60;;;8.47;;
16254;SDS011;8235;52.198;9.904;2022-08-16T02:12:35;8.97;;;7.83;;
16254;SDS011;8235;52.198;9.904;2022-08-16T02:15:03;9.07;;;8.20;;
16254;SDS011;8235;52.198;9.904;2022-08-16T02:17:32;9.63;;;7.57;;
16254;SDS011;8235;52.198;9.904;2022-08-16T02:19:58;9.60;;;8.38;;
16254;SDS011;8235;52.198;9.904;2022-08-16T02:22:25;8.82;;;7.90;;
16254;SDS011;8235;52.198;9.904;2022-08-16T02:24:52;8.77;;;7.97;;
16254;SDS011;8235;52.198;9.904;2022-08-16T02:27:19;9.63;;;8.02;;
16254;SDS011;8235;52.198;9.904;2022-08-16T02:29:46;10.48;;;8.05;;
16254;SDS011;8235;52.198;9.904;2022-08-16T02:32:14;8.90;;;7.38;;
16254;SDS011;8235;52.198;9.904;2022-08-16T02:34:42;10.43;;;7.55;;
16254;SDS011;8235;52.198;9.904;2022-08-16T02:37:09;10.20;;;8.18;;
16254;SDS011;8235;52.198;9.904;2022-08-16T02:39:36;9.80;;;8.80;;
16254;SDS011;8235;52.198;9.904;2022-08-16T02:42:03;9.47;;;7.87;;
16254;SDS011;8235;52.198;9.904;2022-08-16T02:44:30;8.93;;;7.70;;
16254;SDS011;8235;52.198;9.904;2022-08-16T02:46:56;11.30;;;8.73;;
16254;SDS011;8235;52.198;9.904;2022-08-16T02:49:24;9.27;;;8.40;;
16254;SDS011;8235;52.198;9.904;2022-08-16T02:51:51;10.27;;;9.10;;
16254;SDS011;8235;52.198;9.904;2022-08-16T02:54:17;11.33;;;9.20;;
16254;SDS011;8235;52.198;9.904;2022-08-16T02:56:44;10.43;;;9.37;;
16254;SDS011;8235;52.198;9.904;2022-08-16T02:59:11;11.30;;;10.27;;
16254;SDS011;8235;52.198;9.904;2022-08-16T03:01:38;11.83;;;10.57;;
16254;SDS011;8235;52.198;9.904;2022-08-16T03:04:05;12.00;;;9.33;;
16254;SDS011;8235;52.198;9.904;2022-08-16T03:06:33;11.47;;;10.37;;
16254;SDS011;8235;52.198;9.904;2022-08-16T03:09:00;13.88;;;11.10;;
16254;SDS011;8235;52.198;9.904;2022-08-16T03:11:27;12.07;;;11.00;;
16254;SDS011;8235;52.198;9.904;2022-08-16T03:13:55;11.40;;;10.23;;
16254;SDS011;8235;52.198;9.904;2022-08-16T03:16:22;11.50;;;10.37;;
16254;SDS011;8235;52.198;9.904;2022-08-16T03:18:50;10.53;;;9.47;;
16254;SDS011;8235;52.198;9.904;2022-08-16T03:21:17;10.17;;;9.27;;
16254;SDS011;8235;52.198;9.904;2022-08-16T03:23:45;9.17;;;8.17;;
16254;SDS011;8235;52.198;9.904;2022-08-16T03:26:12;10.40;;;7.87;;
16254;SDS011;8235;52.198;9.904;2022-08-16T03:28:39;7.80;;;7.10;;
16254;SDS011;8235;52.198;9.904;2022-08-16T03:31:05;10.50;;;7.00;;
16254;SDS011;8235;52.198;9.904;2022-08-16T03:33:32;10.00;;;7.00;;
16254;SDS011;8235;52.198;9.904;2022-08-16T03:35:59;7.83;;;7.10;;
16254;SDS011;8235;52.198;9.904;2022-08-16T03:38:26;13.17;;;7.10;;
16254;SDS011;8235;52.198;9.904;2022-08-16T03:40:55;7.53;;;6.83;;
16254;SDS011;8235;52.198;9.904;2022-08-16T03:43:26;8.43;;;7.10;;
16254;SDS011;8235;52.198;9.904;2022-08-16T03:45:54;9.37;;;8.30;;
16254;SDS011;8235;52.198;9.904;2022-08-16T03:48:23;10.17;;;9.20;;
16254;SDS011;8235;52.198;9.904;2022-08-16T03:50:51;11.67;;;10.47;;
16254;SDS011;8235;52.198;9.904;2022-08-16T03:53:18;12.20;;;10.70;;
16254;SDS011;8235;52.198;9.904;2022-08-16T03:55:45;12.20;;;10.80;;
16254;SDS011;8235;52.198;9.904;2022-08-16T03:58:13;10.37;;;9.17;;
16254;SDS011;8235;52.198;9.904;2022-08-16T04:00:39;9.43;;;8.43;;
16254;SDS011;8235;52.198;9.904;2022-08-16T04:03:06;10.70;;;9.67;;
16254;SDS011;8235;52.198;9.904;2022-08-16T04:05:33;10.97;;;9.83;;
16254;SDS011;8235;52.198;9.904;2022-08-16T04:08:00;12.53;;;11.03;;
16254;SDS011;8235;52.198;9.904;2022-08-16T04:10:27;10.67;;;8.93;;
16254;SDS011;8235;52.198;9.904;2022-08-16T04:12:54;10.43;;;9.37;;
16254;SDS011;8235;52.198;9.904;2022-08-16T04:15:23;10.33;;;9.43;;
16254;SDS011;8235;52.198;9.904;2022-08-16T04:17:49;9.87;;;8.87;;
16254;SDS011;8235;52.198;9.904;2022-08-16T04:20:16;11.00;;;9.87;;
16254;SDS011;8235;52.198;9.904;2022-08-16T04:22:43;11.67;;;10.47;;
16254;SDS011;8235;52.198;9.904;2022-08-16T04:25:10;9.90;;;9.00;;
16254;SDS011;8235;52.198;9.904;2022-08-16T04:27:37;9.67;;;8.87;;
16254;SDS011;8235;52.198;9.904;2022-08-16T04:30:06;10.33;;;9.30;;
16254;SDS011;8235;52.198;9.904;2022-08-16T04:32:37;10.70;;;9.70;;
16254;SDS011;8235;52.198;9.904;2022-08-16T04:35:04;9.23;;;8.37;;
16254;SDS011;8235;52.198;9.904;2022-08-16T04:37:34;9.23;;;8.30;;
16254;SDS011;8235;52.198;9.904;2022-08-16T04:40:00;9.77;;;8.77;;
16254;SDS011;8235;52.198;9.904;2022-08-16T04:42:27;9.53;;;8.57;;
16254;SDS011;8235;52.198;9.904;2022-08-16T04:44:54;10.73;;;8.70;;
16254;SDS011;8235;52.198;9.904;2022-08-16T04:47:22;10.00;;;9.00;;
16254;SDS011;8235;52.198;9.904;2022-08-16T04:49:51;10.33;;;8.77;;
16254;SDS011;8235;52.198;9.904;2022-08-16T04:52:18;10.13;;;8.57;;
16254;SDS011;8235;52.198;9.904;2022-08-16T04:54:45;12.60;;;9.23;;
16254;SDS011;8235;52.198;9.904;2022-08-16T04:57:12;9.73;;;8.80;;
16254;SDS011;8235;52.198;9.904;2022-08-16T04:59:38;9.43;;;8.60;;
16254;SDS011;8235;52.198;9.904;2022-08-16T05:02:05;9.27;;;8.30;;
16254;SDS011;8235;52.198;9.904;2022-08-16T05:04:32;10.97;;;9.20;;
16254;SDS011;8235;52.198;9.904;2022-08-16T05:07:00;10.03;;;9.03;;
16254;SDS011;8235;52.198;9.904;2022-08-16T05:09:26;9.70;;;8.63;;
16254;SDS011;8235;52.198;9.904;2022-08-16T05:11:53;10.70;;;8.63;;
16254;SDS011;8235;52.198;9.904;2022-08-16T05:14:19;9.03;;;7.80;;
16254;SDS011;8235;52.198;9.904;2022-08-16T05:16:46;9.73;;;8.57;;
16254;SDS011;8235;52.198;9.904;2022-08-16T05:19:13;10.80;;;8.93;;
16254;SDS011;8235;52.198;9.904;2022-08-16T05:21:39;11.47;;;9.90;;
16254;SDS011;8235;52.198;9.904;2022-08-16T05:24:07;13.33;;;10.37;;
16254;SDS011;8235;52.198;9.904;2022-08-16T05:26:34;11.63;;;10.47;;
16254;SDS011;8235;52.198;9.904;2022-08-16T05:29:01;10.27;;;9.27;;
16254;SDS011;8235;52.198;9.904;2022-08-16T05:31:30;9.70;;;8.77;;
16254;SDS011;8235;52.198;9.904;2022-08-16T05:33:57;12.10;;;8.63;;
16254;SDS011;8235;52.198;9.904;2022-08-16T05:36:25;10.73;;;7.83;;
16254;SDS011;8235;52.198;9.904;2022-08-16T05:38:52;8.00;;;7.23;;
16254;SDS011;8235;52.198;9.904;2022-08-16T05:41:19;8.73;;;7.83;;
16254;SDS011;8235;52.198;9.904;2022-08-16T05:43:46;9.17;;;7.63;;
16254;SDS011;8235;52.198;9.904;2022-08-16T05:46:13;7.67;;;6.80;;
16254;SDS011;8235;52.198;9.904;2022-08-16T05:48:43;8.63;;;6.83;;
16254;SDS011;8235;52.198;9.904;2022-08-16T05:51:10;8.07;;;7.27;;
16254;SDS011;8235;52.198;9.904;2022-08-16T05:53:37;7.70;;;6.93;;
16254;SDS011;8235;52.198;9.904;2022-08-16T05:56:03;8.40;;;6.67;;
16254;SDS011;8235;52.198;9.904;2022-08-16T05:58:31;10.13;;;6.87;;
16254;SDS011;8235;52.198;9.904;2022-08-16T06:00:58;8.57;;;7.13;;
16254;SDS011;8235;52.198;9.904;2022-08-16T06:03:25;8.07;;;7.27;;
16254;SDS011;8235;52.198;9.904;2022-08-16T06:05:51;9.38;;;8.00;;
16254;SDS011;8235;52.198;9.904;2022-08-16T06:08:18;8.30;;;7.53;;
16254;SDS011;8235;52.198;9.904;2022-08-16T06:10:44;8.35;;;6.90;;
16254;SDS011;8235;52.198;9.904;2022-08-16T06:13:11;8.10;;;7.35;;
16254;SDS011;8235;52.198;9.904;2022-08-16T06:15:39;8.40;;;7.60;;
16254;SDS011;8235;52.198;9.904;2022-08-16T06:18:05;7.90;;;7.28;;
16254;SDS011;8235;52.198;9.904;2022-08-16T06:20:32;8.48;;;7.63;;
16254;SDS011;8235;52.198;9.904;2022-08-16T06:22:58;9.70;;;7.28;;
16254;SDS011;8235;52.198;9.904;2022-08-16T06:25:26;7.45;;;6.75;;
16254;SDS011;8235;52.198;9.904;2022-08-16T06:27:53;7.43;;;6.82;;
16254;SDS011;8235;52.198;9.904;2022-08-16T06:30:19;10.02;;;7.40;;
16254;SDS011;8235;52.198;9.904;2022-08-16T06:32:47;8.43;;;7.20;;
16254;SDS011;8235;52.198;9.904;2022-08-16T06:35:14;7.43;;;6.80;;
16254;SDS011;8235;52.198;9.904;2022-08-16T06:37:41;8.10;;;6.90;;
16254;SDS011;8235;52.198;9.904;2022-08-16T06:40:09;7.18;;;6.40;;
16254;SDS011;8235;52.198;9.904;2022-08-16T06:42:36;8.43;;;7.07;;
16254;SDS011;8235;52.198;9.904;2022-08-16T06:45:04;8.48;;;7.05;;
16254;SDS011;8235;52.198;9.904;2022-08-16T06:47:31;12.15;;;7.35;;
16254;SDS011;8235;52.198;9.904;2022-08-16T06:49:59;7.32;;;6.60;;
16254;SDS011;8235;52.198;9.904;2022-08-16T06:52:25;7.13;;;6.53;;
16254;SDS011;8235;52.198;9.904;2022-08-16T06:54:58;7.38;;;6.68;;
16254;SDS011;8235;52.198;9.904;2022-08-16T06:57:24;7.03;;;5.68;;
16254;SDS011;8235;52.198;9.904;2022-08-16T06:59:51;7.97;;;6.00;;
16254;SDS011;8235;52.198;9.904;2022-08-16T07:02:17;7.07;;;6.40;;
16254;SDS011;8235;52.198;9.904;2022-08-16T07:04:44;5.95;;;5.45;;
16254;SDS011;8235;52.198;9.904;2022-08-16T07:07:12;5.68;;;4.53;;
16254;SDS011;8235;52.198;9.904;2022-08-16T07:09:39;6.13;;;4.82;;
16254;SDS011;8235;52.198;9.904;2022-08-16T07:12:05;5.70;;;4.53;;
16254;SDS011;8235;52.198;9.904;2022-08-16T07:14:32;5.75;;;4.65;;
16254;SDS011;8235;52.198;9.904;2022-08-16T07:16:59;4.90;;;4.50;;
16254;SDS011;8235;52.198;9.904;2022-08-16T07:19:28;5.20;;;4.75;;
16254;SDS011;8235;52.198;9.904;2022-08-16T07:21:57;4.70;;;4.30;;
16254;SDS011;8235;52.198;9.904;2022-08-16T07:24:29;4.43;;;4.03;;
16254;SDS011;8235;52.198;9.904;2022-08-16T07:26:56;7.75;;;4.60;;
16254;SDS011;8235;52.198;9.904;2022-08-16T07:29:23;5.00;;;4.30;;
16254;SDS011;8235;52.198;9.904;2022-08-16T07:31:50;7.60;;;4.55;;
16254;SDS011;8235;52.198;9.904;2022-08-16T07:34:16;4.85;;;3.92;;
16254;SDS011;8235;52.198;9.904;2022-08-16T07:36:43;4.72;;;4.13;;
16254;SDS011;8235;52.198;9.904;2022-08-16T07:39:10;5.63;;;4.10;;
16254;SDS011;8235;52.198;9.904;2022-08-16T07:41:38;5.03;;;4.32;;
16254;SDS011;8235;52.198;9.904;2022-08-16T07:44:05;6.20;;;4.63;;
16254;SDS011;8235;52.198;9.904;2022-08-16T07:46:31;6.18;;;4.60;;
16254;SDS011;8235;52.198;9.904;2022-08-16T07:48:58;7.45;;;4.90;;
16254;SDS011;8235;52.198;9.904;2022-08-16T07:51:24;5.00;;;4.50;;
16254;SDS011;8235;52.198;9.904;2022-08-16T07:53:51;5.55;;;4.80;;
16254;SDS011;8235;52.198;9.904;2022-08-16T07:56:17;5.93;;;5.05;;
16254;SDS011;8235;52.198;9.904;2022-08-16T07:58:45;5.63;;;5.10;;
16254;SDS011;8235;52.198;9.904;2022-08-16T08:01:12;6.20;;;4.85;;
16254;SDS011;8235;52.198;9.904;2022-08-16T08:03:39;6.97;;;5.13;;
16254;SDS011;8235;52.198;9.904;2022-08-16T08:06:08;6.47;;;4.88;;
16254;SDS011;8235;52.198;9.904;2022-08-16T08:08:35;5.88;;;4.60;;
16254;SDS011;8235;52.198;9.904;2022-08-16T08:11:03;7.63;;;4.75;;
16254;SDS011;8235;52.198;9.904;2022-08-16T08:13:30;6.50;;;5.00;;
16254;SDS011;8235;52.198;9.904;2022-08-16T08:15:58;5.85;;;4.90;;
16254;SDS011;8235;52.198;9.904;2022-08-16T08:18:24;5.65;;;4.63;;
16254;SDS011;8235;52.198;9.904;2022-08-16T08:20:51;5.63;;;5.07;;
16254;SDS011;8235;52.198;9.904;2022-08-16T08:23:17;5.15;;;4.60;;
16254;SDS011;8235;52.198;9.904;2022-08-16T08:25:45;5.10;;;4.57;;
16254;SDS011;8235;52.198;9.904;2022-08-16T08:28:12;5.38;;;4.55;;
16254;SDS011;8235;52.198;9.904;2022-08-16T08:30:39;5.15;;;4.65;;
16254;SDS011;8235;52.198;9.904;2022-08-16T08:33:07;5.18;;;4.68;;
16254;SDS011;8235;52.198;9.904;2022-08-16T08:35:34;4.85;;;4.45;;
16254;SDS011;8235;52.198;9.904;2022-08-16T08:38:01;4.72;;;4.30;;
16254;SDS011;8235;52.198;9.904;2022-08-16T08:40:30;4.88;;;4.43;;
16254;SDS011;8235;52.198;9.904;2022-08-16T08:42:58;4.78;;;4.40;;
16254;SDS011;8235;52.198;9.904;2022-08-16T08:45:25;4.60;;;4.18;;
16254;SDS011;8235;52.198;9.904;2022-08-16T08:47:52;7.82;;;5.00;;
16254;SDS011;8235;52.198;9.904;2022-08-16T08:50:23;9.45;;;4.68;;
16254;SDS011;8235;52.198;9.904;2022-08-16T08:52:50;6.30;;;4.18;;
16254;SDS011;8235;52.198;9.904;2022-08-16T08:55:17;4.97;;;4.47;;
16254;SDS011;8235;52.198;9.904;2022-08-16T08:57:47;4.63;;;4.32;;
16254;SDS011;8235;52.198;9.904;2022-08-16T09:00:15;5.15;;;4.65;;
16254;SDS011;8235;52.198;9.904;2022-08-16T09:02:43;4.60;;;4.20;;
16254;SDS011;8235;52.198;9.904;2022-08-16T09:05:11;6.05;;;4.03;;
16254;SDS011;8235;52.198;9.904;2022-08-16T09:07:40;4.50;;;4.10;;
16254;SDS011;8235;52.198;9.904;2022-08-16T09:10:08;4.63;;;4.22;;
16254;SDS011;8235;52.198;9.904;2022-08-16T09:12:37;4.90;;;3.80;;
16254;SDS011;8235;52.198;9.904;2022-08-16T09:15:06;6.53;;;3.78;;
16254;SDS011;8235;52.198;9.904;2022-08-16T09:17:33;6.63;;;4.03;;
16254;SDS011;8235;52.198;9.904;2022-08-16T09:20:01;4.30;;;3.95;;
16254;SDS011;8235;52.198;9.904;2022-08-16T09:22:28;4.65;;;4.10;;
16254;SDS011;8235;52.198;9.904;2022-08-16T09:24:56;4.53;;;4.13;;
16254;SDS011;8235;52.198;9.904;2022-08-16T09:27:23;4.60;;;4.20;;
16254;SDS011;8235;52.198;9.904;2022-08-16T09:29:50;4.60;;;4.18;;
16254;SDS011;8235;52.198;9.904;2022-08-16T09:32:17;4.22;;;3.75;;
16254;SDS011;8235;52.198;9.904;2022-08-16T09:34:43;4.05;;;3.75;;
16254;SDS011;8235;52.198;9.904;2022-08-16T09:37:11;6.82;;;4.97;;
16254;SDS011;8235;52.198;9.904;2022-08-16T09:39:39;4.47;;;4.13;;
16254;SDS011;8235;52.198;9.904;2022-08-16T09:42:08;3.95;;;3.38;;
16254;SDS011;8235;52.198;9.904;2022-08-16T09:44:34;4.80;;;4.07;;
16254;SDS011;8235;52.198;9.904;2022-08-16T09:47:01;5.03;;;3.90;;
16254;SDS011;8235;52.198;9.904;2022-08-16T09:49:29;4.72;;;3.75;;
16254;SDS011;8235;52.198;9.904;2022-08-16T09:51:55;4.63;;;3.60;;
16254;SDS011;8235;52.198;9.904;2022-08-16T09:54:22;4.90;;;3.85;;
16254;SDS011;8235;52.198;9.904;2022-08-16T09:56:50;6.72;;;4.18;;
16254;SDS011;8235;52.198;9.904;2022-08-16T09:59:19;6.53;;;3.72;;
16254;SDS011;8235;52.198;9.904;2022-08-16T10:01:46;4.45;;;3.50;;
16254;SDS011;8235;52.198;9.904;2022-08-16T10:04:13;4.35;;;4.03;;
16254;SDS011;8235;52.198;9.904;2022-08-16T10:06:40;4.18;;;3.78;;
16254;SDS011;8235;52.198;9.904;2022-08-16T10:09:10;4.05;;;3.65;;
16254;SDS011;8235;52.198;9.904;2022-08-16T10:11:38;4.03;;;3.72;;
16254;SDS011;8235;52.198;9.904;2022-08-16T10:14:24;4.05;;;3.58;;
16254;SDS011;8235;52.198;9.904;2022-08-16T10:16:54;4.63;;;3.83;;
16254;SDS011;8235;52.198;9.904;2022-08-16T10:19:23;5.00;;;3.80;;
16254;SDS011;8235;52.198;9.904;2022-08-16T10:21:49;4.40;;;3.55;;
16254;SDS011;8235;52.198;9.904;2022-08-16T10:24:16;3.92;;;3.45;;
16254;SDS011;8235;52.198;9.904;2022-08-16T10:26:44;3.58;;;3.28;;
16254;SDS011;8235;52.198;9.904;2022-08-16T10:29:11;4.18;;;3.70;;
16254;SDS011;8235;52.198;9.904;2022-08-16T10:31:40;3.83;;;3.47;;
16254;SDS011;8235;52.198;9.904;2022-08-16T10:34:06;4.90;;;3.45;;
16254;SDS011;8235;52.198;9.904;2022-08-16T10:36:33;4.90;;;3.35;;
16254;SDS011;8235;52.198;9.904;2022-08-16T10:39:00;4.47;;;3.75;;
16254;SDS011;8235;52.198;9.904;2022-08-16T10:41:27;3.67;;;3.08;;
16254;SDS011;8235;52.198;9.904;2022-08-16T10:43:54;4.10;;;3.47;;
16254;SDS011;8235;52.198;9.904;2022-08-16T10:46:20;3.95;;;3.50;;
16254;SDS011;8235;52.198;9.904;2022-08-16T10:48:48;5.05;;;3.80;;
16254;SDS011;8235;52.198;9.904;2022-08-16T10:51:15;4.40;;;3.67;;
16254;SDS011;8235;52.198;9.904;2022-08-16T10:53:41;4.85;;;3.63;;
16254;SDS011;8235;52.198;9.904;2022-08-16T10:56:09;3.70;;;3.40;;
16254;SDS011;8235;52.198;9.904;2022-08-16T10:58:36;3.75;;;3.45;;
16254;SDS011;8235;52.198;9.904;2022-08-16T11:01:05;3.85;;;3.45;;
16254;SDS011;8235;52.198;9.904;2022-08-16T11:03:33;3.45;;;3.15;;
16254;SDS011;8235;52.198;9.904;2022-08-16T11:06:02;5.05;;;3.33;;
16254;SDS011;8235;52.198;9.904;2022-08-16T11:08:31;3.80;;;3.50;;
16254;SDS011;8235;52.198;9.904;2022-08-16T11:10:57;3.92;;;3.63;;
16254;SDS011;8235;52.198;9.904;2022-08-16T11:13:25;4.00;;;3.65;;
16254;SDS011;8235;52.198;9.904;2022-08-16T11:15:52;3.55;;;3.25;;
16254;SDS011;8235;52.198;9.904;2022-08-16T11:18:20;3.38;;;3.17;;
16254;SDS011;8235;52.198;9.904;2022-08-16T11:20:47;3.50;;;3.20;;
16254;SDS011;8235;52.198;9.904;2022-08-16T11:23:15;3.78;;;3.38;;
16254;SDS011;8235;52.198;9.904;2022-08-16T11:25:42;3.92;;;3.53;;
16254;SDS011;8235;52.198;9.904;2022-08-16T11:28:08;3.60;;;3.30;;
16254;SDS011;8235;52.198;9.904;2022-08-16T11:30:36;4.97;;;3.22;;
16254;SDS011;8235;52.198;9.904;2022-08-16T11:33:03;3.25;;;2.67;;
16254;SDS011;8235;52.198;9.904;2022-08-16T11:35:30;2.90;;;2.70;;
16254;SDS011;8235;52.198;9.904;2022-08-16T11:38:00;3.53;;;3.22;;
16254;SDS011;8235;52.198;9.904;2022-08-16T11:40:30;4.90;;;3.38;;
16254;SDS011;8235;52.198;9.904;2022-08-16T11:42:58;3.28;;;3.00;;
16254;SDS011;8235;52.198;9.904;2022-08-16T11:45:25;4.70;;;2.97;;
16254;SDS011;8235;52.198;9.904;2022-08-16T11:47:52;3.60;;;3.28;;
16254;SDS011;8235;52.198;9.904;2022-08-16T11:50:19;15.05;;;2.92;;
16254;SDS011;8235;52.198;9.904;2022-08-16T11:52:48;3.22;;;2.92;;
16254;SDS011;8235;52.198;9.904;2022-08-16T11:55:15;2.95;;;2.75;;
16254;SDS011;8235;52.198;9.904;2022-08-16T11:57:43;3.00;;;2.80;;
16254;SDS011;8235;52.198;9.904;2022-08-16T12:00:12;3.55;;;3.13;;
16254;SDS011;8235;52.198;9.904;2022-08-16T12:02:40;2.95;;;2.75;;
16254;SDS011;8235;52.198;9.904;2022-08-16T12:05:08;2.95;;;2.72;;
16254;SDS011;8235;52.198;9.904;2022-08-16T12:07:37;5.65;;;3.03;;
16254;SDS011;8235;52.198;9.904;2022-08-16T12:10:05;3.40;;;2.75;;
16254;SDS011;8235;52.198;9.904;2022-08-16T12:12:34;3.08;;;2.85;;
16254;SDS011;8235;52.198;9.904;2022-08-16T12:15:03;3.85;;;2.85;;
16254;SDS011;8235;52.198;9.904;2022-08-16T12:17:30;2.75;;;2.55;;
16254;SDS011;8235;52.198;9.904;2022-08-16T12:19:57;3.97;;;3.13;;
16254;SDS011;8235;52.198;9.904;2022-08-16T12:22:24;4.05;;;3.10;;
16254;SDS011;8235;52.198;9.904;2022-08-16T12:24:50;4.25;;;3.00;;
16254;SDS011;8235;52.198;9.904;2022-08-16T12:27:17;4.50;;;3.00;;
16254;SDS011;8235;52.198;9.904;2022-08-16T12:29:45;4.07;;;3.50;;
16254;SDS011;8235;52.198;9.904;2022-08-16T12:32:14;3.00;;;2.80;;
16254;SDS011;8235;52.198;9.904;2022-08-16T12:34:40;3.70;;;3.03;;
16254;SDS011;8235;52.198;9.904;2022-08-16T12:37:07;3.55;;;3.10;;
16254;SDS011;8235;52.198;9.904;2022-08-16T12:39:34;3.25;;;2.95;;
16254;SDS011;8235;52.198;9.904;2022-08-16T12:42:01;3.55;;;3.25;;
16254;SDS011;8235;52.198;9.904;2022-08-16T12:44:27;4.18;;;2.90;;
16254;SDS011;8235;52.198;9.904;2022-08-16T12:46:54;4.50;;;3.03;;
16254;SDS011;8235;52.198;9.904;2022-08-16T12:49:39;3.38;;;3.08;;
16254;SDS011;8235;52.198;9.904;2022-08-16T12:52:06;3.65;;;3.35;;
16254;SDS011;8235;52.198;9.904;2022-08-16T12:54:32;4.07;;;3.28;;
16254;SDS011;8235;52.198;9.904;2022-08-16T12:56:59;3.33;;;3.03;;
16254;SDS011;8235;52.198;9.904;2022-08-16T12:59:26;4.25;;;3.28;;
16254;SDS011;8235;52.198;9.904;2022-08-16T13:01:52;3.45;;;3.15;;
16254;SDS011;8235;52.198;9.904;2022-08-16T13:04:19;3.35;;;3.05;;
16254;SDS011;8235;52.198;9.904;2022-08-16T13:06:48;3.47;;;3.22;;
16254;SDS011;8235;52.198;9.904;2022-08-16T13:09:16;4.00;;;3.13;;
16254;SDS011;8235;52.198;9.904;2022-08-16T13:11:49;4.38;;;3.40;;
16254;SDS011;8235;52.198;9.904;2022-08-16T13:14:24;4.32;;;3.30;;
16254;SDS011;8235;52.198;9.904;2022-08-16T13:16:52;3.20;;;3.00;;
16254;SDS011;8235;52.198;9.904;2022-08-16T13:19:19;3.20;;;2.90;;
16254;SDS011;8235;52.198;9.904;2022-08-16T13:21:45;3.20;;;2.90;;
16254;SDS011;8235;52.198;9.904;2022-08-16T13:24:13;3.58;;;3.20;;
16254;SDS011;8235;52.198;9.904;2022-08-16T13:26:40;4.15;;;3.40;;
16254;SDS011;8235;52.198;9.904;2022-08-16T13:29:07;3.72;;;3.42;;
16254;SDS011;8235;52.198;9.904;2022-08-16T13:31:33;2.75;;;2.55;;
16254;SDS011;8235;52.198;9.904;2022-08-16T13:34:00;3.65;;;3.05;;
16254;SDS011;8235;52.198;9.904;2022-08-16T13:36:27;3.15;;;2.95;;
16254;SDS011;8235;52.198;9.904;2022-08-16T13:38:56;3.35;;;3.05;;
16254;SDS011;8235;52.198;9.904;2022-08-16T13:41:23;3.67;;;3.08;;
16254;SDS011;8235;52.198;9.904;2022-08-16T13:43:51;3.40;;;3.10;;
16254;SDS011;8235;52.198;9.904;2022-08-16T13:46:17;3.17;;;2.92;;
16254;SDS011;8235;52.198;9.904;2022-08-16T13:48:44;3.60;;;3.30;;
16254;SDS011;8235;52.198;9.904;2022-08-16T13:51:11;3.63;;;3.30;;
16254;SDS011;8235;52.198;9.904;2022-08-16T13:53:38;3.20;;;3.00;;
16254;SDS011;8235;52.198;9.904;2022-08-16T13:56:06;3.97;;;2.90;;
16254;SDS011;8235;52.198;9.904;2022-08-16T13:58:33;3.17;;;2.97;;
16254;SDS011;8235;52.198;9.904;2022-08-16T14:00:59;3.40;;;3.10;;
16254;SDS011;8235;52.198;9.904;2022-08-16T14:03:27;3.45;;;3.13;;
16254;SDS011;8235;52.198;9.904;2022-08-16T14:05:53;3.42;;;3.00;;
16254;SDS011;8235;52.198;9.904;2022-08-16T14:08:20;6.72;;;3.30;;
16254;SDS011;8235;52.198;9.904;2022-08-16T14:10:46;3.55;;;3.10;;
16254;SDS011;8235;52.198;9.904;2022-08-16T14:13:14;3.38;;;3.08;;
16254;SDS011;8235;52.198;9.904;2022-08-16T14:15:41;3.53;;;3.22;;
16254;SDS011;8235;52.198;9.904;2022-08-16T14:18:07;3.35;;;3.15;;
16254;SDS011;8235;52.198;9.904;2022-08-16T14:20:34;3.47;;;3.17;;
16254;SDS011;8235;52.198;9.904;2022-08-16T14:23:00;4.65;;;3.50;;
16254;SDS011;8235;52.198;9.904;2022-08-16T14:25:27;3.45;;;3.25;;
16254;SDS011;8235;52.198;9.904;2022-08-16T14:27:54;3.45;;;3.15;;
16254;SDS011;8235;52.198;9.904;2022-08-16T14:30:22;3.53;;;3.22;;
16254;SDS011;8235;52.198;9.904;2022-08-16T14:32:50;5.28;;;3.63;;
16254;SDS011;8235;52.198;9.904;2022-08-16T14:35:18;3.63;;;3.33;;
16254;SDS011;8235;52.198;9.904;2022-08-16T14:37:47;4.75;;;3.78;;
16254;SDS011;8235;52.198;9.904;2022-08-16T14:40:14;3.75;;;3.42;;
16254;SDS011;8235;52.198;9.904;2022-08-16T14:42:43;4.05;;;3.58;;
16254;SDS011;8235;52.198;9.904;2022-08-16T14:45:12;3.70;;;3.40;;
16254;SDS011;8235;52.198;9.904;2022-08-16T14:47:41;5.25;;;3.60;;
16254;SDS011;8235;52.198;9.904;2022-08-16T14:50:09;3.50;;;3.20;;
16254;SDS011;8235;52.198;9.904;2022-08-16T14:52:39;5.38;;;3.63;;
16254;SDS011;8235;52.198;9.904;2022-08-16T14:55:06;4.88;;;3.33;;
16254;SDS011;8235;52.198;9.904;2022-08-16T14:57:34;3.70;;;3.40;;
16254;SDS011;8235;52.198;9.904;2022-08-16T15:00:00;4.43;;;3.55;;